Time;durP1;ratioP1;P1;durP2;ratioP2;P2;SDS_P1;SDS_P2;PMS_P1;PMS_P2;Temp;Humidity;BMP_temperature;BMP_pressure;BME280_temperature;BME280_humidity;BME280_pressure;Samples;Min_cycle;Max_cycle;Signal;HPM_P1;HPM_P2
2022/01/13 00:02:10;;;;;;;18.37;9.73;;;;;;;-2.07;nan;-23756.31;5052279;28;20178;-76
2022/01/13 00:04:35;;;;;;;16.73;9.50;;;;;;;-2.30;nan;-23749.84;5027862;28;20636;-75
2022/01/13 00:07:01;;;;;;;18.73;10.13;;;;;;;-2.29;nan;-23750.13;5051776;28;20191;-75
2022/01/13 00:09:27;;;;;;;20.10;10.77;;;;;;;-2.36;nan;-23748.28;5043687;28;20202;-76
2022/01/13 00:11:53;;;;;;;17.80;9.13;;;;;;;-2.47;nan;-23744.97;5034225;28;20620;-74
2022/01/13 00:22:13;;;;;;;18.03;8.57;;;;;;;-2.85;nan;-23734.19;5044290;28;20192;-75
2022/01/13 00:24:39;;;;;;;16.87;8.40;;;;;;;-2.05;nan;-23757.03;5017366;28;20185;-74
2022/01/13 00:27:10;;;;;;;18.63;9.47;;;;;;;-2.48;nan;-23744.81;5051364;28;20180;-75
2022/01/13 00:29:39;;;;;;;20.73;10.07;;;;;;;-2.56;nan;-23742.38;5040578;28;20188;-74
2022/01/13 00:32:05;;;;;;;17.10;9.77;;;;;;;-2.22;nan;-23752.16;5036059;28;20280;-75
2022/01/13 00:34:30;;;;;;;16.87;10.27;;;;;;;-2.36;nan;-23748.28;5047230;28;20280;-75
2022/01/13 00:36:58;;;;;;;18.83;10.90;;;;;;;-2.19;nan;-23752.88;5031352;28;20190;-76
2022/01/13 00:39:24;;;;;;;19.47;10.40;;;;;;;-2.46;nan;-23745.41;5036740;28;20765;-76
2022/01/13 00:41:50;;;;;;;18.93;11.03;;;;;;;-2.73;nan;-23737.66;5037394;28;20178;-73
2022/01/13 00:44:19;;;;;;;19.27;10.03;;;;;;;-2.79;nan;-23736.06;5037663;28;20191;-74
2022/01/13 00:46:48;;;;;;;21.37;10.50;;;;;;;-2.87;nan;-23733.75;5041283;28;20184;-75
2022/01/13 00:49:14;;;;;;;21.87;11.57;;;;;;;-2.49;nan;-23744.53;5038767;28;20189;-76
2022/01/13 00:51:42;;;;;;;21.20;11.77;;;;;;;-2.72;nan;-23738.06;5034227;28;20233;-76
2022/01/13 00:54:08;;;;;;;20.00;10.97;;;;;;;-2.47;nan;-23744.97;5035083;28;20883;-76
2022/01/13 00:56:35;;;;;;;21.70;11.27;;;;;;;-2.52;nan;-23743.69;5036928;28;20637;-75
2022/01/13 00:59:07;;;;;;;23.30;11.80;;;;;;;-2.94;nan;-23731.75;5035752;28;20196;-76
2022/01/13 01:01:38;;;;;;;21.23;11.20;;;;;;;-2.68;nan;-23739.06;5036471;28;20185;-75
2022/01/13 01:04:05;;;;;;;22.50;11.67;;;;;;;-3.06;nan;-23728.31;5043695;28;20184;-76
2022/01/13 01:06:32;;;;;;;20.80;11.13;;;;;;;-3.15;nan;-23725.84;5039577;28;20180;-74
2022/01/13 01:08:58;;;;;;;20.13;11.10;;;;;;;-2.77;nan;-23736.50;5033868;28;20707;-76
2022/01/13 01:11:27;;;;;;;20.30;11.30;;;;;;;-2.60;nan;-23741.22;5034536;28;20182;-75
2022/01/13 01:13:54;;;;;;;19.90;10.80;;;;;;;-2.81;nan;-23735.34;5033066;28;20220;-75
2022/01/13 01:16:21;;;;;;;18.27;10.33;;;;;;;-2.90;nan;-23732.91;5036225;28;20185;-76
2022/01/13 01:31:33;;;;;;;21.33;12.07;;;;;;;-2.63;nan;-23740.38;5034289;28;20594;-73
2022/01/13 01:36:27;;;;;;;25.70;11.57;;;;;;;-3.25;nan;-23722.97;5050693;28;20198;-75
2022/01/13 01:38:55;;;;;;;21.40;11.17;;;;;;;-3.09;nan;-23727.44;5053194;28;20687;-75
2022/01/13 01:41:21;;;;;;;19.93;10.67;;;;;;;-2.76;nan;-23736.91;5036764;28;20194;-74
2022/01/13 01:43:47;;;;;;;21.20;11.53;;;;;;;-2.70;nan;-23738.66;5042961;28;20584;-76
2022/01/13 01:46:12;;;;;;;22.27;10.07;;;;;;;-2.73;nan;-23737.66;5054492;28;20232;-76
2022/01/13 01:48:38;;;;;;;18.07;10.80;;;;;;;-2.61;nan;-23740.94;5054641;28;20656;-76
2022/01/13 01:51:04;;;;;;;19.70;10.50;;;;;;;-3.21;nan;-23724.13;5054189;28;20670;-76
2022/01/13 01:53:31;;;;;;;21.67;11.00;;;;;;;-3.30;nan;-23721.41;5036454;28;20207;-74
2022/01/13 01:55:57;;;;;;;23.10;11.03;;;;;;;-2.48;nan;-23744.81;5035970;28;20191;-73
2022/01/13 01:58:26;;;;;;;20.23;12.03;;;;;;;-3.07;nan;-23728.00;5054422;28;20192;-74
2022/01/13 02:00:54;;;;;;;18.53;11.17;;;;;;;-3.23;nan;-23723.56;5047128;28;20189;-76
2022/01/13 02:03:26;;;;;;;21.50;10.77;;;;;;;-2.64;nan;-23740.09;5036322;28;20208;-74
2022/01/13 02:05:53;;;;;;;23.03;11.07;;;;;;;-3.24;nan;-23723.13;5030788;28;20260;-75
2022/01/13 02:08:18;;;;;;;21.80;11.20;;;;;;;-3.02;nan;-23729.31;5047818;28;20655;-75
2022/01/13 02:10:45;;;;;;;23.60;11.13;;;;;;;-2.66;nan;-23739.66;5042148;28;20194;-75
2022/01/13 02:13:13;;;;;;;19.73;10.90;;;;;;;-2.92;nan;-23732.31;5046564;28;20199;-76
2022/01/13 02:18:15;;;;;;;22.13;11.70;;;;;;;-2.98;nan;-23730.59;5035826;28;20673;-75
2022/01/13 02:20:51;;;;;;;23.23;11.13;;;;;;;-3.57;nan;-23713.91;5034532;28;20215;-75
2022/01/13 02:23:35;;;;;;;20.10;10.43;;;;;;;-3.25;nan;-23722.84;5035949;28;20610;-73
2022/01/13 02:26:01;;;;;;;19.43;10.07;;;;;;;-3.52;nan;-23715.06;5035725;28;20600;-75
2022/01/13 02:28:28;;;;;;;21.30;11.33;;;;;;;-3.64;nan;-23711.91;5034135;28;20183;-75
2022/01/13 02:30:53;;;;;;;20.20;10.70;;;;;;;-3.21;nan;-23724.13;5036519;28;20184;-74
2022/01/13 02:33:19;;;;;;;21.20;10.67;;;;;;;-3.19;nan;-23724.56;5034631;28;20220;-73
2022/01/13 02:35:44;;;;;;;22.90;11.53;;;;;;;-3.70;nan;-23710.16;5035100;28;20194;-76
2022/01/13 02:38:12;;;;;;;21.73;10.73;;;;;;;-3.78;nan;-23707.72;5034775;28;20192;-76
2022/01/13 02:40:38;;;;;;;23.10;11.07;;;;;;;-3.68;nan;-23710.75;5036904;28;20190;-75
2022/01/13 02:43:05;;;;;;;23.63;12.97;;;;;;;-3.19;nan;-23724.69;5024249;28;20180;-74
2022/01/13 02:45:37;;;;;;;23.37;13.10;;;;;;;-3.83;nan;-23706.44;5038131;28;20187;-75
2022/01/13 02:50:28;;;;;;;23.60;14.60;;;;;;;-3.28;nan;-23721.97;5033774;28;20183;-75
2022/01/13 02:52:54;;;;;;;24.83;13.93;;;;;;;-3.61;nan;-23712.75;5033794;28;20241;-74
2022/01/13 02:55:19;;;;;;;26.20;13.63;;;;;;;-3.31;nan;-23721.09;5034097;28;20178;-76
2022/01/13 02:57:45;;;;;;;22.30;12.27;;;;;;;-3.33;nan;-23720.53;5036622;28;20184;-76
2022/01/13 03:00:15;;;;;;;24.07;12.43;;;;;;;-3.49;nan;-23716.06;5024924;28;20187;-74
2022/01/13 03:02:43;;;;;;;22.40;12.47;;;;;;;-3.78;nan;-23707.88;5035271;28;20183;-75
2022/01/13 03:05:12;;;;;;;26.97;15.80;;;;;;;-3.34;nan;-23720.38;5018377;28;20712;-75
2022/01/13 03:07:39;;;;;;;24.10;13.87;;;;;;;-3.93;nan;-23703.56;5035388;28;20191;-76
2022/01/13 03:10:05;;;;;;;18.50;10.97;;;;;;;-3.65;nan;-23711.63;5037957;28;20795;-75
2022/01/13 03:12:33;;;;;;;23.80;11.97;;;;;;;-3.58;nan;-23713.47;5035774;28;20273;-75
2022/01/13 03:14:59;;;;;;;20.50;10.63;;;;;;;-3.53;nan;-23714.94;5038075;28;20178;-75
2022/01/13 03:17:24;;;;;;;22.27;11.43;;;;;;;-3.57;nan;-23713.91;5036198;28;20631;-76
2022/01/13 03:19:50;;;;;;;23.40;11.20;;;;;;;-4.10;nan;-23698.81;5016614;28;20190;-74
2022/01/13 03:22:15;;;;;;;22.37;11.60;;;;;;;-3.88;nan;-23704.84;5036085;28;20186;-75
2022/01/13 03:24:41;;;;;;;22.93;13.37;;;;;;;-3.70;nan;-23710.16;5020117;28;20232;-76
2022/01/13 03:27:07;;;;;;;28.33;15.67;;;;;;;-3.83;nan;-23706.44;5038944;28;20187;-75
2022/01/13 03:29:33;;;;;;;27.43;15.70;;;;;;;-3.79;nan;-23707.59;5039747;28;20572;-76
2022/01/13 03:31:58;;;;;;;28.47;16.10;;;;;;;-4.16;nan;-23696.94;5039299;28;20182;-76
2022/01/13 03:34:24;;;;;;;31.03;17.07;;;;;;;-3.65;nan;-23711.47;5047162;28;20205;-74
2022/01/13 03:36:50;;;;;;;27.63;14.03;;;;;;;-4.15;nan;-23697.22;5052515;28;20218;-76
2022/01/13 03:39:15;;;;;;;27.43;14.90;;;;;;;-4.30;nan;-23692.91;5034510;28;20190;-76
2022/01/13 03:41:41;;;;;;;22.33;12.23;;;;;;;-4.22;nan;-23695.34;5034298;28;20203;-75
2022/01/13 03:44:16;;;;;;;24.90;14.00;;;;;;;-4.07;nan;-23699.53;5045819;28;20210;-76
2022/01/13 03:46:41;;;;;;;29.17;15.70;;;;;;;-3.74;nan;-23708.88;5052768;28;20178;-73
2022/01/13 03:49:07;;;;;;;28.00;16.77;;;;;;;-3.73;nan;-23709.31;5034423;28;20182;-75
2022/01/13 03:51:55;;;;;;;27.73;15.07;;;;;;;-3.79;nan;-23707.59;5032905;28;20325;-74
2022/01/13 03:54:33;;;;;;;26.93;13.33;;;;;;;-4.40;nan;-23690.16;5051966;28;20221;-77
2022/01/13 03:57:33;;;;;;;33.40;20.60;;;;;;;-3.70;nan;-23710.16;5032241;28;20198;-75
2022/01/13 04:00:16;;;;;;;24.60;12.73;;;;;;;-3.67;nan;-23711.03;5042194;28;20186;-76
2022/01/13 04:02:42;;;;;;;24.47;11.47;;;;;;;-4.23;nan;-23694.91;5045571;28;20273;-74
2022/01/13 04:05:08;;;;;;;23.53;13.00;;;;;;;-4.34;nan;-23691.91;5043115;28;20405;-76
2022/01/13 04:07:34;;;;;;;26.40;12.27;;;;;;;-3.76;nan;-23708.31;5037177;28;20187;-75
2022/01/13 04:09:59;;;;;;;24.90;12.67;;;;;;;-3.86;nan;-23705.44;5034126;28;20187;-76
2022/01/13 04:12:27;;;;;;;24.97;12.73;;;;;;;-4.16;nan;-23696.94;5037400;28;20195;-75
2022/01/13 04:14:56;;;;;;;28.20;14.43;;;;;;;-4.06;nan;-23699.97;5032587;28;20286;-75
2022/01/13 04:17:24;;;;;;;25.97;13.73;;;;;;;-4.57;nan;-23685.28;5017355;28;20179;-75
2022/01/13 04:19:50;;;;;;;29.63;15.77;;;;;;;-3.99;nan;-23701.84;5036465;28;20179;-76
2022/01/13 04:22:17;;;;;;;27.07;14.07;;;;;;;-4.47;nan;-23688.28;5034889;28;20219;-75
2022/01/13 04:24:47;;;;;;;28.83;13.40;;;;;;;-4.26;nan;-23694.06;5039330;28;20201;-75
2022/01/13 04:27:31;;;;;;;27.00;13.40;;;;;;;-4.19;nan;-23696.06;5033888;28;20266;-75
2022/01/13 04:32:41;;;;;;;26.10;12.43;;;;;;;-4.24;nan;-23694.78;5040080;28;20183;-77
2022/01/13 04:35:08;;;;;;;24.63;12.07;;;;;;;-4.19;nan;-23696.06;5036740;28;20182;-77
2022/01/13 04:37:33;;;;;;;22.73;11.77;;;;;;;-4.10;nan;-23698.66;5036068;28;20187;-75
2022/01/13 04:39:59;;;;;;;23.30;11.47;;;;;;;-3.82;nan;-23706.72;5037261;28;20178;-76
2022/01/13 04:42:30;;;;;;;24.27;11.90;;;;;;;-4.72;nan;-23681.09;5037482;28;20191;-75
2022/01/13 04:44:55;;;;;;;27.00;12.30;;;;;;;-4.02;nan;-23701.09;5031129;28;20650;-75
2022/01/13 04:47:20;;;;;;;23.60;12.10;;;;;;;-4.62;nan;-23683.81;5037641;28;20191;-76
2022/01/13 04:49:46;;;;;;;24.67;11.80;;;;;;;-4.26;nan;-23694.06;5036290;28;20667;-75
2022/01/13 04:52:11;;;;;;;24.30;13.17;;;;;;;-3.96;nan;-23702.53;5037081;28;20227;-76
2022/01/13 04:54:37;;;;;;;23.13;12.23;;;;;;;-3.91;nan;-23704.13;5039395;28;20218;-77
2022/01/13 04:57:07;;;;;;;28.57;14.97;;;;;;;-3.90;nan;-23704.41;5044441;28;20183;-75
2022/01/13 04:59:32;;;;;;;20.23;12.23;;;;;;;-3.81;nan;-23707.00;5048815;28;20642;-77
2022/01/13 05:02:00;;;;;;;21.67;11.47;;;;;;;-3.73;nan;-23709.31;5046419;28;20182;-76
2022/01/13 05:04:26;;;;;;;27.47;12.30;;;;;;;-4.43;nan;-23689.31;5050925;28;20654;-77
2022/01/13 05:06:52;;;;;;;29.60;12.40;;;;;;;-4.79;nan;-23678.94;5032816;28;20186;-76
2022/01/13 05:09:17;;;;;;;21.80;11.80;;;;;;;-4.61;nan;-23684.25;5049913;28;20182;-77
2022/01/13 05:11:42;;;;;;;21.30;11.53;;;;;;;-4.61;nan;-23684.13;5051101;28;20167;-75
2022/01/13 05:14:08;;;;;;;29.20;17.00;;;;;;;-4.46;nan;-23688.44;5054980;28;20232;-76
2022/01/13 05:16:49;;;;;;;30.07;15.53;;;;;;;-4.33;nan;-23692.03;5053325;28;20653;-76
2022/01/13 05:19:19;;;;;;;26.33;14.27;;;;;;;-4.44;nan;-23689.03;5050013;28;20174;-75
2022/01/13 05:24:19;;;;;;;36.20;19.90;;;;;;;-4.46;nan;-23688.44;5054786;28;20196;-76
2022/01/13 05:26:45;;;;;;;46.67;26.43;;;;;;;-4.54;nan;-23686.28;5036272;28;20187;-74
2022/01/13 05:29:12;;;;;;;35.53;18.40;;;;;;;-4.61;nan;-23684.25;5054871;28;20179;-76
2022/01/13 05:31:38;;;;;;;41.27;22.20;;;;;;;-4.70;nan;-23681.53;5050425;28;20179;-77
2022/01/13 05:34:03;;;;;;;38.70;14.90;;;;;;;-4.27;nan;-23693.78;5052473;28;20221;-76
2022/01/13 05:36:28;;;;;;;28.03;13.87;;;;;;;-4.16;nan;-23696.94;5054308;28;20189;-75
2022/01/13 05:38:54;;;;;;;25.10;12.80;;;;;;;-4.58;nan;-23685.13;5054305;28;20257;-77
2022/01/13 05:41:19;;;;;;;21.93;12.20;;;;;;;-4.67;nan;-23682.53;5054120;28;20196;-74
2022/01/13 05:43:45;;;;;;;27.20;12.50;;;;;;;-4.44;nan;-23688.88;5054783;28;20178;-77
2022/01/13 05:46:10;;;;;;;30.20;13.63;;;;;;;-4.95;nan;-23674.47;5054457;28;20197;-75
2022/01/13 05:48:36;;;;;;;25.03;12.70;;;;;;;-4.83;nan;-23677.78;5053801;28;20174;-77
2022/01/13 05:51:01;;;;;;;25.67;12.97;;;;;;;-4.70;nan;-23681.66;5054150;28;20177;-73
2022/01/13 05:53:26;;;;;;;26.73;13.30;;;;;;;-4.31;nan;-23692.75;5053465;28;20237;-74
2022/01/13 05:55:52;;;;;;;30.90;14.37;;;;;;;-4.42;nan;-23689.59;5054002;28;20186;-72
2022/01/13 05:58:17;;;;;;;25.93;14.20;;;;;;;-4.19;nan;-23696.22;5054125;28;20556;-74
2022/01/13 06:00:43;;;;;;;26.53;13.67;;;;;;;-4.50;nan;-23687.28;5036128;28;20179;-71
2022/01/13 06:03:10;;;;;;;27.67;12.90;;;;;;;-4.67;nan;-23682.41;5053548;28;20180;-73
2022/01/13 06:05:37;;;;;;;23.53;13.47;;;;;;;-4.34;nan;-23691.91;5053941;28;20566;-75
2022/01/13 06:08:03;;;;;;;33.33;16.20;;;;;;;-4.49;nan;-23687.72;5053114;28;20178;-77
2022/01/13 06:10:28;;;;;;;35.60;19.67;;;;;;;-3.99;nan;-23701.69;5034289;28;20192;-77
2022/01/13 06:12:54;;;;;;;36.87;18.53;;;;;;;-4.39;nan;-23690.31;5019026;28;20317;-76
2022/01/13 06:15:22;;;;;;;36.53;18.17;;;;;;;-4.57;nan;-23685.41;5035676;28;20195;-76
2022/01/13 06:17:50;;;;;;;48.73;18.63;;;;;;;-3.87;nan;-23705.28;5035919;28;20209;-76
2022/01/13 06:20:17;;;;;;;56.10;19.03;;;;;;;-4.04;nan;-23700.53;5035993;28;20711;-77
2022/01/13 06:22:45;;;;;;;48.93;17.47;;;;;;;-4.28;nan;-23693.63;5033159;28;20198;-75
2022/01/13 06:25:11;;;;;;;47.67;18.97;;;;;;;-4.31;nan;-23692.63;5033205;28;20179;-74
2022/01/13 06:27:37;;;;;;;51.33;18.50;;;;;;;-4.37;nan;-23690.88;5021663;28;20283;-74
2022/01/13 06:30:05;;;;;;;53.90;18.03;;;;;;;-3.62;nan;-23712.47;5034678;28;20210;-75
2022/01/13 06:32:31;;;;;;;61.53;19.23;;;;;;;-3.70;nan;-23710.16;5034400;28;20182;-75
2022/01/13 06:34:56;;;;;;;65.53;17.33;;;;;;;-3.79;nan;-23707.59;5036914;28;20195;-76
2022/01/13 06:37:22;;;;;;;56.63;18.67;;;;;;;-3.71;nan;-23709.88;5019104;28;20484;-76
2022/01/13 06:39:47;;;;;;;50.30;17.37;;;;;;;-3.39;nan;-23718.81;5035703;28;20722;-76
2022/01/13 06:42:12;;;;;;;56.97;18.20;;;;;;;-3.48;nan;-23716.38;5034119;28;20190;-75
2022/01/13 06:44:38;;;;;;;48.83;17.20;;;;;;;-3.12;nan;-23726.56;5033795;28;20187;-76
2022/01/13 06:47:05;;;;;;;60.43;18.27;;;;;;;-3.06;nan;-23728.16;5034224;28;20704;-74
2022/01/13 06:49:30;;;;;;;49.80;18.27;;;;;;;-3.11;nan;-23726.84;5033845;28;20230;-74
2022/01/13 06:51:56;;;;;;;47.03;18.23;;;;;;;-3.50;nan;-23715.63;5035448;28;20244;-75
2022/01/13 06:54:23;;;;;;;42.33;16.50;;;;;;;-3.54;nan;-23714.50;5020496;28;20215;-76
2022/01/13 06:56:49;;;;;;;30.63;14.50;;;;;;;-3.42;nan;-23717.94;5046143;28;20600;-76
2022/01/13 06:59:14;;;;;;;33.13;13.63;;;;;;;-2.99;nan;-23730.31;5046095;28;20253;-76
2022/01/13 07:01:41;;;;;;;26.93;14.43;;;;;;;-2.89;nan;-23733.03;5048955;28;20187;-74
2022/01/13 07:04:09;;;;;;;32.10;14.17;;;;;;;-2.52;nan;-23743.69;5027092;28;20189;-75
2022/01/13 07:06:35;;;;;;;29.03;13.23;;;;;;;-3.05;nan;-23728.59;5038641;28;20181;-77
2022/01/13 07:09:03;;;;;;;27.90;13.57;;;;;;;-2.54;nan;-23743.09;5036917;28;20192;-75
2022/01/13 07:11:28;;;;;;;29.63;13.93;;;;;;;-2.41;nan;-23746.69;5051700;28;20181;-76
2022/01/13 07:13:53;;;;;;;24.27;13.90;;;;;;;-2.20;nan;-23752.56;5052046;28;20284;-77
2022/01/13 07:16:21;;;;;;;24.17;13.53;;;;;;;-2.44;nan;-23745.81;5028214;28;20186;-77
2022/01/13 07:18:46;;;;;;;35.63;14.80;;;;;;;-2.22;nan;-23752.28;5033986;28;20197;-76
2022/01/13 07:21:12;;;;;;;29.90;14.33;;;;;;;-2.76;nan;-23736.91;5035812;28;20189;-76
2022/01/13 07:23:38;;;;;;;26.07;13.33;;;;;;;-2.52;nan;-23743.69;5036846;28;20665;-77
2022/01/13 07:26:03;;;;;;;29.73;14.80;;;;;;;-1.96;nan;-23759.63;5039741;28;20263;-77
2022/01/13 07:28:30;;;;;;;27.70;13.80;;;;;;;-1.87;nan;-23762.19;5037868;28;20181;-76
2022/01/13 07:30:57;;;;;;;25.60;14.07;;;;;;;-2.00;nan;-23758.31;5035139;28;20211;-76
2022/01/13 07:33:22;;;;;;;25.03;13.07;;;;;;;-1.22;nan;-23780.56;5035626;28;20358;-76
2022/01/13 07:35:48;;;;;;;38.57;14.43;;;;;;;-1.69;nan;-23767.22;5032321;28;20635;-76
2022/01/13 07:38:14;;;;;;;24.80;13.23;;;;;;;-1.81;nan;-23763.78;5034430;28;20220;-75
2022/01/13 07:40:39;;;;;;;26.43;13.93;;;;;;;-1.51;nan;-23772.38;5017777;28;20182;-76
2022/01/13 07:43:05;;;;;;;25.83;12.67;;;;;;;-1.66;nan;-23767.94;5032125;28;20555;-76
2022/01/13 07:45:30;;;;;;;22.67;11.90;;;;;;;-0.85;nan;-23790.91;5032515;28;20178;-75
2022/01/13 07:47:56;;;;;;;21.63;12.57;;;;;;;-1.11;nan;-23783.59;5034103;28;20515;-76
2022/01/13 07:50:22;;;;;;;24.50;11.30;;;;;;;-0.61;nan;-23797.91;5038453;28;20201;-77
2022/01/13 07:52:48;;;;;;;21.40;11.13;;;;;;;-1.01;nan;-23786.59;5035207;28;20219;-77
2022/01/13 07:55:13;;;;;;;23.63;11.87;;;;;;;-0.68;nan;-23795.75;5044589;28;20273;-75
2022/01/13 07:57:39;;;;;;;22.43;11.67;;;;;;;-0.39;nan;-23804.06;5033977;28;20191;-76
2022/01/13 08:00:07;;;;;;;20.67;11.90;;;;;;;-0.45;nan;-23802.34;5035801;28;20174;-77
2022/01/13 08:02:33;;;;;;;26.13;12.57;;;;;;;-0.27;nan;-23807.50;5034181;28;20193;-76
2022/01/13 08:04:58;;;;;;;22.83;11.97;;;;;;;-0.68;nan;-23795.75;5037424;28;20270;-74
2022/01/13 08:07:24;;;;;;;28.87;13.70;;;;;;;-0.20;nan;-23809.38;5035955;28;20176;-77
2022/01/13 08:09:49;;;;;;;23.47;13.27;;;;;;;-0.34;nan;-23805.38;5036251;28;20195;-76
2022/01/13 08:12:14;;;;;;;22.57;12.50;;;;;;;-0.13;nan;-23811.53;5024617;28;20188;-76
2022/01/13 08:14:40;;;;;;;20.63;12.37;;;;;;;-0.29;nan;-23806.94;5038987;28;20224;-75
2022/01/13 08:17:07;;;;;;;20.27;11.27;;;;;;;-0.30;nan;-23806.66;5039554;28;20214;-77
2022/01/13 08:19:45;;;;;;;24.00;11.80;;;;;;;-0.31;nan;-23806.38;5018479;28;20179;-76
2022/01/13 08:22:11;;;;;;;23.53;11.67;;;;;;;0.02;nan;-23815.53;5038577;28;20273;-75
2022/01/13 08:24:36;;;;;;;20.47;12.13;;;;;;;-0.31;nan;-23806.22;5018074;28;20270;-77
2022/01/13 08:27:02;;;;;;;22.57;11.90;;;;;;;-0.16;nan;-23810.53;5037009;28;20184;-75
2022/01/13 08:29:28;;;;;;;23.07;12.33;;;;;;;0.42;nan;-23827.13;5035032;28;20990;-77
2022/01/13 08:31:53;;;;;;;20.97;12.13;;;;;;;0.02;nan;-23815.53;5036171;28;20191;-77
2022/01/13 08:34:18;;;;;;;21.37;11.53;;;;;;;0.27;nan;-23822.84;5016520;28;20640;-75
2022/01/13 08:36:45;;;;;;;19.53;11.10;;;;;;;0.04;nan;-23816.25;5032516;28;20177;-76
2022/01/13 08:39:11;;;;;;;23.23;12.00;;;;;;;0.11;nan;-23818.13;5014957;28;20191;-77
2022/01/13 08:41:37;;;;;;;18.57;11.20;;;;;;;0.49;nan;-23829.00;5032645;28;20814;-76
2022/01/13 08:44:03;;;;;;;21.90;11.70;;;;;;;0.49;nan;-23829.00;5033747;28;20190;-75
2022/01/13 08:46:28;;;;;;;20.57;10.90;;;;;;;0.77;nan;-23837.00;5034980;28;20175;-75
2022/01/13 08:48:54;;;;;;;21.43;10.90;;;;;;;0.91;nan;-23840.72;5043491;28;20185;-77
2022/01/13 08:51:19;;;;;;;19.77;11.07;;;;;;;0.84;nan;-23838.88;5048460;28;20178;-76
2022/01/13 08:53:46;;;;;;;20.97;11.23;;;;;;;0.89;nan;-23840.44;5053345;28;20680;-76
2022/01/13 08:56:12;;;;;;;21.13;12.17;;;;;;;0.90;nan;-23840.59;5049442;28;20190;-77
2022/01/13 08:58:38;;;;;;;21.43;12.37;;;;;;;0.45;nan;-23827.84;5055266;28;20178;-76
2022/01/13 09:01:03;;;;;;;23.13;11.50;;;;;;;0.98;nan;-23842.88;5055207;28;20529;-76
2022/01/13 09:03:29;;;;;;;23.83;11.57;;;;;;;0.97;nan;-23842.44;5055160;28;20197;-76
2022/01/13 09:05:55;;;;;;;25.13;11.50;;;;;;;1.36;nan;-23853.44;5055475;28;20181;-74
2022/01/13 09:08:20;;;;;;;24.87;11.80;;;;;;;1.18;nan;-23848.59;5055157;28;20631;-78
2022/01/13 09:10:46;;;;;;;22.30;12.40;;;;;;;0.96;nan;-23842.16;5052903;28;20712;-77
2022/01/13 09:13:17;;;;;;;26.27;13.27;;;;;;;1.37;nan;-23853.75;5050565;28;20209;-76
2022/01/13 09:15:52;;;;;;;23.87;11.87;;;;;;;1.32;nan;-23852.59;5037413;28;20239;-76
2022/01/13 09:18:30;;;;;;;20.70;11.80;;;;;;;1.18;nan;-23848.44;5055255;28;20166;-76
2022/01/13 09:20:55;;;;;;;24.77;12.43;;;;;;;0.86;nan;-23839.44;5054883;28;20569;-76
2022/01/13 09:23:21;;;;;;;25.30;11.90;;;;;;;1.40;nan;-23854.59;5055195;28;20185;-75
2022/01/13 09:25:47;;;;;;;24.70;12.23;;;;;;;1.07;nan;-23845.44;5048435;28;20553;-77
2022/01/13 09:28:13;;;;;;;21.37;12.17;;;;;;;0.89;nan;-23840.44;5054613;28;20189;-76
2022/01/13 09:30:39;;;;;;;27.13;13.03;;;;;;;0.80;nan;-23837.72;5055102;28;20178;-75
2022/01/13 09:33:06;;;;;;;23.17;12.67;;;;;;;1.36;nan;-23853.44;5030348;28;20201;-75
2022/01/13 09:35:33;;;;;;;25.47;13.03;;;;;;;0.86;nan;-23839.44;5054569;28;20266;-75
2022/01/13 09:37:58;;;;;;;28.80;13.03;;;;;;;1.28;nan;-23851.44;5055028;28;20171;-75
2022/01/13 09:40:24;;;;;;;28.60;13.60;;;;;;;1.69;nan;-23862.88;5054547;28;20181;-75
2022/01/13 09:42:50;;;;;;;27.77;13.13;;;;;;;1.66;nan;-23862.19;5054355;28;20638;-76
2022/01/13 09:45:17;;;;;;;25.77;13.77;;;;;;;1.54;nan;-23858.59;5036329;28;20270;-75
2022/01/13 09:47:44;;;;;;;22.53;12.47;;;;;;;1.49;nan;-23857.16;5054407;28;20206;-76
2022/01/13 09:50:13;;;;;;;22.77;12.57;;;;;;;1.80;nan;-23865.88;5034028;28;20183;-74
2022/01/13 09:52:40;;;;;;;24.80;12.83;;;;;;;1.51;nan;-23857.75;5049103;28;20229;-76
2022/01/13 09:55:07;;;;;;;27.97;14.13;;;;;;;2.04;nan;-23872.75;5045843;28;20206;-76
2022/01/13 09:57:32;;;;;;;27.10;13.60;;;;;;;1.56;nan;-23859.31;5053833;28;20568;-77
2022/01/13 09:59:58;;;;;;;22.27;11.67;;;;;;;1.56;nan;-23859.16;5053920;28;20205;-78
2022/01/13 10:02:29;;;;;;;21.10;11.53;;;;;;;1.95;nan;-23870.16;5047299;28;20210;-76
2022/01/13 10:04:56;;;;;;;21.40;11.37;;;;;;;1.61;nan;-23860.59;5053734;28;20178;-76
2022/01/13 10:07:36;;;;;;;22.63;12.27;;;;;;;1.94;nan;-23869.88;5047157;28;20210;-76
2022/01/13 10:10:06;;;;;;;22.60;11.87;;;;;;;2.26;nan;-23879.03;5053812;28;20288;-77
2022/01/13 10:12:37;;;;;;;19.57;10.87;;;;;;;2.11;nan;-23874.88;5054199;28;20210;-75
2022/01/13 10:17:51;;;;;;;19.43;10.93;;;;;;;1.90;nan;-23868.75;5049546;28;20586;-75
2022/01/13 10:20:19;;;;;;;19.60;10.97;;;;;;;2.08;nan;-23874.03;5038170;28;20239;-76
2022/01/13 10:22:46;;;;;;;22.43;10.83;;;;;;;2.36;nan;-23881.88;5053666;28;20611;-76
2022/01/13 10:25:32;;;;;;;19.33;11.20;;;;;;;2.43;nan;-23883.88;5053371;28;20190;-75
2022/01/13 10:28:19;;;;;;;23.23;12.57;;;;;;;2.42;nan;-23883.59;5052987;28;20248;-77
2022/01/13 10:30:48;;;;;;;23.67;12.50;;;;;;;2.68;nan;-23890.88;5053100;28;20560;-75
2022/01/13 10:33:28;;;;;;;22.50;11.07;;;;;;;2.02;nan;-23872.16;5052991;28;20190;-75
2022/01/13 10:36:05;;;;;;;19.10;10.37;;;;;;;1.81;nan;-23866.16;5052212;28;20167;-75
2022/01/13 10:38:51;;;;;;;18.80;11.10;;;;;;;2.36;nan;-23881.75;5052488;28;20167;-80
2022/01/13 10:41:38;;;;;;;23.23;11.20;;;;;;;2.34;nan;-23881.16;5036221;28;20286;-72
2022/01/13 10:44:18;;;;;;;17.80;10.47;;;;;;;2.13;nan;-23875.31;5050758;28;20232;-72
2022/01/13 10:47:04;;;;;;;19.30;10.90;;;;;;;2.35;nan;-23881.47;5052589;28;20269;-76
2022/01/13 10:49:32;;;;;;;16.57;9.90;;;;;;;2.05;nan;-23873.03;5050337;28;20250;-74
2022/01/13 10:52:16;;;;;;;17.30;10.43;;;;;;;2.32;nan;-23880.75;5049074;28;20222;-71
2022/01/13 10:54:41;;;;;;;18.27;10.83;;;;;;;2.25;nan;-23878.75;5052882;28;20198;-72
2022/01/13 10:57:17;;;;;;;18.10;10.20;;;;;;;2.45;nan;-23884.44;5035145;28;20185;-72
2022/01/13 10:59:43;;;;;;;21.17;11.07;;;;;;;2.43;nan;-23883.88;5053106;28;20261;-70
2022/01/13 11:02:11;;;;;;;17.17;9.77;;;;;;;2.42;nan;-23883.59;5034805;28;20408;-72
2022/01/13 11:04:37;;;;;;;19.90;11.43;;;;;;;2.61;nan;-23889.03;5052832;28;20237;-74
2022/01/13 11:07:21;;;;;;;23.17;10.97;;;;;;;2.33;nan;-23881.03;5052989;28;20167;-74
2022/01/13 11:09:58;;;;;;;19.90;11.07;;;;;;;2.78;nan;-23893.72;5052332;28;20635;-73
2022/01/13 11:12:33;;;;;;;22.07;11.57;;;;;;;2.92;nan;-23897.72;5052657;28;20626;-72
2022/01/13 11:15:04;;;;;;;18.90;11.13;;;;;;;2.26;nan;-23878.88;5034930;28;20316;-73
2022/01/13 11:17:30;;;;;;;19.20;11.13;;;;;;;2.88;nan;-23896.44;5033834;28;20206;-71
2022/01/13 11:19:56;;;;;;;19.17;10.90;;;;;;;2.65;nan;-23890.16;5050390;28;20213;-74
2022/01/13 11:22:22;;;;;;;22.37;11.57;;;;;;;2.29;nan;-23879.88;5051793;28;20175;-72
2022/01/13 11:24:49;;;;;;;18.07;10.87;;;;;;;2.76;nan;-23893.00;5051653;28;20174;-74
2022/01/13 11:27:18;;;;;;;17.77;10.60;;;;;;;2.39;nan;-23882.59;5049111;28;20273;-73
2022/01/13 11:29:47;;;;;;;19.03;10.40;;;;;;;2.26;nan;-23879.03;5051110;28;20179;-75
2022/01/13 11:32:17;;;;;;;18.47;10.60;;;;;;;2.83;nan;-23895.16;5051875;28;20282;-77
2022/01/13 11:34:43;;;;;;;19.37;11.17;;;;;;;2.45;nan;-23884.44;5051175;28;20194;-76
2022/01/13 11:37:12;;;;;;;18.33;10.47;;;;;;;2.81;nan;-23894.59;5051472;28;20174;-74
2022/01/13 11:39:42;;;;;;;19.10;11.10;;;;;;;2.86;nan;-23895.88;5052026;28;20182;-75
2022/01/13 11:42:11;;;;;;;19.03;10.60;;;;;;;2.43;nan;-23883.88;5051494;28;20187;-74
2022/01/13 11:44:38;;;;;;;17.73;10.60;;;;;;;2.80;nan;-23894.16;5051047;28;20183;-74
2022/01/13 11:47:22;;;;;;;17.67;10.10;;;;;;;3.04;nan;-23901.16;5051523;28;20695;-76
2022/01/13 11:50:04;;;;;;;20.87;11.13;;;;;;;2.94;nan;-23898.16;5051814;28;20245;-74
2022/01/13 11:55:24;;;;;;;21.97;11.57;;;;;;;3.30;nan;-23908.41;5051167;28;20262;-74
2022/01/13 11:57:50;;;;;;;21.03;10.97;;;;;;;3.14;nan;-23903.84;5051338;28;20178;-73
2022/01/13 12:00:26;;;;;;;16.77;10.63;;;;;;;3.06;nan;-23901.56;5051216;28;20535;-74
2022/01/13 12:02:52;;;;;;;19.53;10.67;;;;;;;2.86;nan;-23895.88;5051340;28;20269;-74
2022/01/13 12:05:20;;;;;;;20.37;10.93;;;;;;;2.94;nan;-23898.16;5033344;28;20210;-73
2022/01/13 12:07:59;;;;;;;20.07;10.37;;;;;;;3.09;nan;-23902.56;5050732;28;20167;-76
2022/01/13 12:10:24;;;;;;;20.60;11.87;;;;;;;3.21;nan;-23905.72;5050782;28;20186;-71
2022/01/13 12:12:53;;;;;;;20.23;11.20;;;;;;;2.66;nan;-23890.44;5050585;28;20232;-74